createdAt,value
2022-12-08T00:01:19.056Z,9.33
2022-12-08T00:03:47.484Z,10.13
2022-12-08T00:06:40.232Z,9.60
2022-12-08T00:09:23.166Z,7.33
2022-12-08T00:11:56.506Z,8.83
2022-12-08T00:14:26.537Z,11.03
2022-12-08T00:16:55.083Z,11.97
2022-12-08T00:19:23.582Z,9.70
2022-12-08T00:21:53.273Z,10.97
2022-12-08T00:24:22.001Z,8.80
2022-12-08T00:26:50.404Z,11.40
2022-12-08T00:29:19.091Z,10.83
2022-12-08T00:31:47.485Z,10.57
2022-12-08T00:34:16.072Z,9.57
2022-12-08T00:36:44.458Z,9.87
2022-12-08T00:39:14.551Z,8.53
2022-12-08T00:42:00.354Z,8.20
2022-12-08T00:44:28.711Z,10.27
2022-12-08T00:46:57.133Z,9.33
2022-12-08T00:49:25.451Z,10.93
2022-12-08T00:51:53.965Z,8.57
2022-12-08T00:54:24.611Z,10.00
2022-12-08T00:56:53.177Z,9.80
2022-12-08T00:59:21.504Z,10.23
2022-12-08T01:01:49.830Z,9.93
2022-12-08T01:04:19.223Z,10.33
2022-12-08T01:06:47.648Z,8.23
2022-12-08T01:09:16.601Z,8.53
2022-12-08T01:11:46.511Z,9.10
2022-12-08T01:14:14.948Z,8.70
2022-12-08T01:16:43.539Z,12.73
2022-12-08T01:19:12.389Z,8.83
2022-12-08T01:21:40.927Z,7.70
2022-12-08T01:24:11.834Z,10.20
2022-12-08T01:26:40.188Z,8.20
2022-12-08T01:29:10.039Z,9.57
2022-12-08T01:31:38.399Z,9.43
2022-12-08T01:34:07.027Z,10.40
2022-12-08T01:36:37.213Z,9.50
2022-12-08T01:39:07.189Z,9.37
2022-12-08T01:41:36.558Z,12.97
2022-12-08T01:44:05.789Z,9.43
2022-12-08T01:46:36.105Z,11.13
2022-12-08T01:49:06.119Z,13.97
2022-12-08T01:51:39.184Z,10.27
2022-12-08T01:54:07.568Z,9.87
2022-12-08T01:56:37.679Z,11.37
2022-12-08T01:59:06.050Z,9.17
2022-12-08T02:01:35.964Z,10.77
2022-12-08T02:04:05.378Z,10.37
2022-12-08T02:06:34.962Z,10.37
2022-12-08T02:09:03.332Z,9.83
2022-12-08T02:11:31.562Z,12.03
2022-12-08T02:14:02.767Z,13.23
2022-12-08T02:16:39.319Z,10.83
2022-12-08T02:19:31.870Z,11.23
2022-12-08T02:22:01.181Z,8.97
2022-12-08T02:24:32.711Z,9.17
2022-12-08T02:27:16.029Z,13.60
2022-12-08T02:30:09.428Z,11.10
2022-12-08T02:33:03.006Z,11.20
2022-12-08T02:35:35.147Z,11.27
2022-12-08T02:38:07.725Z,9.90
2022-12-08T02:40:37.996Z,11.03
2022-12-08T02:43:08.968Z,11.17
2022-12-08T02:45:39.730Z,11.03
2022-12-08T02:48:08.102Z,12.57
2022-12-08T02:50:37.945Z,13.53
2022-12-08T02:55:38.827Z,14.30
2022-12-08T02:58:43.554Z,15.33
2022-12-08T03:01:25.999Z,13.07
2022-12-08T03:03:58.051Z,15.53
2022-12-08T03:06:30.768Z,11.37
2022-12-08T03:09:01.126Z,13.67
2022-12-08T03:11:31.802Z,12.40
2022-12-08T03:14:01.546Z,12.17
2022-12-08T03:16:31.121Z,13.20
2022-12-08T03:19:01.969Z,11.57
2022-12-08T03:21:31.736Z,11.03
2022-12-08T03:24:00.104Z,11.23
2022-12-08T03:26:31.687Z,13.10
2022-12-08T03:28:59.974Z,13.63
2022-12-08T03:31:29.541Z,11.33
2022-12-08T03:33:58.165Z,12.40
2022-12-08T03:36:26.573Z,12.93
2022-12-08T03:38:56.260Z,11.60
2022-12-08T03:41:24.859Z,14.93
2022-12-08T03:43:53.964Z,14.87
2022-12-08T03:48:50.195Z,14.33
2022-12-08T03:51:18.663Z,13.73
2022-12-08T03:53:47.315Z,14.13
2022-12-08T03:56:18.457Z,12.63
2022-12-08T03:58:46.819Z,12.93
2022-12-08T04:01:15.086Z,13.30
2022-12-08T04:03:43.374Z,13.77
2022-12-08T04:06:12.335Z,14.23
2022-12-08T04:08:40.661Z,15.97
2022-12-08T04:11:09.003Z,13.47
2022-12-08T04:13:39.649Z,14.40
2022-12-08T04:16:07.952Z,14.40
2022-12-08T04:18:36.874Z,16.60
2022-12-08T04:21:05.682Z,16.83
2022-12-08T04:23:34.077Z,13.97
2022-12-08T04:26:02.525Z,16.00
2022-12-08T04:28:30.837Z,14.23
2022-12-08T04:31:00.791Z,12.93
2022-12-08T04:33:29.278Z,13.20
2022-12-08T04:35:57.514Z,14.60
2022-12-08T04:38:25.923Z,17.60
2022-12-08T04:40:54.238Z,14.20
2022-12-08T04:43:22.496Z,16.17
2022-12-08T04:45:50.796Z,14.33
2022-12-08T04:48:20.897Z,13.53
2022-12-08T04:50:49.265Z,14.00
2022-12-08T04:53:18.015Z,13.53
2022-12-08T04:55:48.679Z,13.47
2022-12-08T04:58:18.051Z,12.57
2022-12-08T05:00:48.280Z,14.87
2022-12-08T05:03:16.810Z,14.80
2022-12-08T05:05:46.729Z,12.70
2022-12-08T05:08:15.121Z,12.27
2022-12-08T05:10:43.508Z,13.10
2022-12-08T05:13:11.855Z,12.57
2022-12-08T05:15:40.445Z,11.77
2022-12-08T05:18:08.788Z,13.57
2022-12-08T05:20:37.084Z,13.60
2022-12-08T05:23:06.854Z,11.57
2022-12-08T05:25:35.162Z,11.53
2022-12-08T05:28:32.898Z,10.53
2022-12-08T05:30:52.193Z,12.67
2022-12-08T05:33:20.728Z,12.13
2022-12-08T05:35:49.051Z,10.93
2022-12-08T05:38:18.791Z,11.63
2022-12-08T05:40:47.089Z,11.97
2022-12-08T05:43:15.672Z,10.87
2022-12-08T05:45:43.976Z,11.60
2022-12-08T05:48:12.429Z,11.50
2022-12-08T05:50:40.938Z,10.23
2022-12-08T05:53:09.833Z,10.67
2022-12-08T05:55:39.608Z,10.77
2022-12-08T05:58:08.313Z,11.03
2022-12-08T06:00:36.576Z,11.17
2022-12-08T06:03:05.262Z,10.47
2022-12-08T06:05:34.091Z,10.23
2022-12-08T06:08:02.496Z,12.07
2022-12-08T06:10:31.147Z,9.80
2022-12-08T06:13:00.899Z,10.33
2022-12-08T06:15:29.263Z,10.50
2022-12-08T06:17:57.606Z,9.73
2022-12-08T06:20:25.884Z,13.73
2022-12-08T06:22:55.329Z,11.07
2022-12-08T06:25:23.991Z,9.63
2022-12-08T06:27:52.357Z,11.37
2022-12-08T06:30:22.054Z,8.43
2022-12-08T06:32:50.392Z,10.83
2022-12-08T06:35:18.650Z,12.13
2022-12-08T06:37:47.255Z,11.90
2022-12-08T06:40:15.979Z,12.10
2022-12-08T06:42:46.581Z,11.37
2022-12-08T06:45:15.426Z,12.30
2022-12-08T06:47:45.124Z,11.83
2022-12-08T06:50:13.766Z,11.87
2022-12-08T06:52:55.757Z,11.37
2022-12-08T06:58:17.929Z,10.37
2022-12-08T07:00:46.340Z,12.97
2022-12-08T07:03:16.508Z,11.10
2022-12-08T07:05:44.834Z,9.90
2022-12-08T07:08:13.239Z,10.80
2022-12-08T07:10:41.570Z,13.13
2022-12-08T07:13:09.920Z,11.93
2022-12-08T07:15:38.235Z,12.70
2022-12-08T07:18:06.827Z,15.00
2022-12-08T07:20:36.698Z,11.33
2022-12-08T07:23:04.993Z,12.17
2022-12-08T07:25:33.252Z,13.77
2022-12-08T07:28:01.595Z,12.90
2022-12-08T07:30:30.464Z,12.77
2022-12-08T07:32:58.904Z,13.37
2022-12-08T07:35:27.277Z,12.97
2022-12-08T07:37:57.848Z,13.17
2022-12-08T07:40:26.419Z,13.63
2022-12-08T07:42:54.735Z,12.60
2022-12-08T07:45:29.800Z,12.90
2022-12-08T07:47:59.696Z,11.93
2022-12-08T07:50:28.158Z,10.80
2022-12-08T07:52:57.832Z,12.63
2022-12-08T07:55:26.156Z,12.30
2022-12-08T07:57:54.773Z,13.40
2022-12-08T08:00:23.190Z,10.63
2022-12-08T08:02:51.494Z,10.87
2022-12-08T08:05:20.762Z,12.07
2022-12-08T08:07:49.097Z,12.27
2022-12-08T08:10:19.251Z,12.53
2022-12-08T08:12:47.700Z,11.37
2022-12-08T08:15:15.965Z,12.93
2022-12-08T08:17:44.333Z,11.57
2022-12-08T08:20:13.603Z,11.33
2022-12-08T08:22:41.884Z,11.60
2022-12-08T08:25:10.730Z,12.23
2022-12-08T08:27:40.426Z,12.97
2022-12-08T08:30:09.838Z,11.30
2022-12-08T08:32:38.204Z,14.10
2022-12-08T08:35:07.153Z,12.37
2022-12-08T08:37:35.752Z,17.33
2022-12-08T08:40:04.414Z,13.00
2022-12-08T08:42:32.834Z,13.10
2022-12-08T08:45:02.644Z,13.00
2022-12-08T08:47:30.953Z,11.90
2022-12-08T08:49:59.306Z,15.10
2022-12-08T08:52:29.275Z,11.47
2022-12-08T08:54:57.611Z,11.63
2022-12-08T08:57:26.358Z,12.93
2022-12-08T08:59:54.807Z,12.17
2022-12-08T09:02:24.593Z,12.37
2022-12-08T09:04:53.775Z,12.50
2022-12-08T09:07:22.514Z,13.47
2022-12-08T09:09:50.817Z,12.97
2022-12-08T09:12:19.345Z,12.53
2022-12-08T09:14:47.622Z,11.30
2022-12-08T09:17:16.339Z,11.60
2022-12-08T09:19:46.346Z,8.93
2022-12-08T09:22:16.653Z,12.13
2022-12-08T09:24:44.993Z,13.33
2022-12-08T09:27:13.431Z,11.97
2022-12-08T09:29:41.788Z,12.23
2022-12-08T09:32:10.621Z,13.97
2022-12-08T09:34:38.999Z,15.40
2022-12-08T09:37:09.165Z,13.83
2022-12-08T09:39:37.635Z,9.73
2022-12-08T09:42:06.982Z,11.20
2022-12-08T09:44:47.715Z,12.83
2022-12-08T09:47:19.700Z,12.03
2022-12-08T09:49:52.263Z,11.93
2022-12-08T09:52:25.547Z,12.47
2022-12-08T09:54:53.968Z,14.43
2022-12-08T09:57:22.457Z,12.10
2022-12-08T09:59:52.803Z,16.03
2022-12-08T10:02:23.232Z,16.60
2022-12-08T10:04:51.802Z,16.13
2022-12-08T10:07:24.864Z,15.90
2022-12-08T10:09:56.187Z,16.07
2022-12-08T10:12:27.610Z,15.37
2022-12-08T10:14:58.779Z,16.67
2022-12-08T10:17:27.792Z,13.77
2022-12-08T10:20:07.821Z,14.87
2022-12-08T10:22:42.852Z,11.50
2022-12-08T10:25:17.773Z,12.10
2022-12-08T10:27:47.027Z,11.23
2022-12-08T10:30:16.514Z,12.77
2022-12-08T10:32:46.833Z,14.10
2022-12-08T10:35:16.052Z,13.67
2022-12-08T10:37:49.944Z,15.43
2022-12-08T10:40:19.039Z,12.27
2022-12-08T10:42:48.611Z,11.23
2022-12-08T10:45:24.286Z,12.03
2022-12-08T10:47:58.755Z,12.93
2022-12-08T10:50:31.154Z,18.43
2022-12-08T10:53:01.944Z,12.30
2022-12-08T10:55:30.816Z,13.17
2022-12-08T10:57:59.106Z,14.77
2022-12-08T11:00:28.669Z,13.80
2022-12-08T11:02:59.417Z,11.80
2022-12-08T11:05:29.779Z,31.23
2022-12-08T11:07:58.356Z,13.50
2022-12-08T11:10:38.023Z,11.07
2022-12-08T11:13:07.225Z,11.47
2022-12-08T11:15:37.803Z,19.87
2022-12-08T11:18:12.132Z,11.70
2022-12-08T11:20:41.860Z,14.73
2022-12-08T11:23:23.369Z,10.50
2022-12-08T11:25:53.146Z,10.27
2022-12-08T11:28:23.813Z,9.93
2022-12-08T11:30:57.657Z,8.27
2022-12-08T11:33:26.753Z,8.60
2022-12-08T11:35:58.248Z,8.80
2022-12-08T11:38:27.404Z,8.97
2022-12-08T11:40:58.328Z,8.77
2022-12-08T11:43:30.511Z,9.23
2022-12-08T11:46:00.529Z,7.67
2022-12-08T11:48:31.965Z,8.23
2022-12-08T11:51:02.661Z,9.00
2022-12-08T11:53:32.937Z,8.30
2022-12-08T11:56:06.663Z,8.40
2022-12-08T11:58:37.791Z,9.53
2022-12-08T12:01:06.255Z,9.77
2022-12-08T12:03:37.248Z,10.27
2022-12-08T12:06:46.526Z,9.87
2022-12-08T12:09:13.405Z,9.27
2022-12-08T12:12:05.377Z,8.40
2022-12-08T12:14:48.402Z,11.37
2022-12-08T12:17:28.546Z,8.17
2022-12-08T12:19:57.156Z,8.43
2022-12-08T12:22:25.493Z,11.47
2022-12-08T12:24:53.812Z,8.03
2022-12-08T12:27:26.259Z,8.10
2022-12-08T12:29:56.461Z,8.30
2022-12-08T12:32:24.873Z,6.90
2022-12-08T12:34:54.596Z,7.03
2022-12-08T12:37:23.926Z,7.27
2022-12-08T12:39:56.897Z,7.40
2022-12-08T12:42:40.044Z,6.53
2022-12-08T12:45:26.830Z,6.87
2022-12-08T12:48:25.083Z,7.40
2022-12-08T12:50:55.320Z,7.17
2022-12-08T12:53:49.013Z,7.40
2022-12-08T12:56:51.208Z,6.07
2022-12-08T12:59:44.567Z,6.97
2022-12-08T13:02:24.302Z,6.00
2022-12-08T13:04:58.904Z,5.83
2022-12-08T13:07:28.206Z,9.17
2022-12-08T13:09:58.732Z,7.60
2022-12-08T13:12:28.284Z,6.27
2022-12-08T13:15:03.183Z,5.67
2022-12-08T13:17:32.104Z,6.37
2022-12-08T13:20:01.060Z,6.67
2022-12-08T13:22:49.571Z,5.93
2022-12-08T13:25:46.811Z,6.67
2022-12-08T13:28:23.763Z,6.03
2022-12-08T13:30:53.966Z,5.67
2022-12-08T13:33:32.899Z,6.47
2022-12-08T13:36:15.825Z,7.10
2022-12-08T13:38:44.702Z,6.17
2022-12-08T13:41:17.545Z,6.47
2022-12-08T13:44:10.585Z,8.30
2022-12-08T13:56:43.322Z,7.10
2022-12-08T13:58:05.853Z,7.13
2022-12-08T14:00:34.371Z,5.83
2022-12-08T14:03:04.128Z,6.57
2022-12-08T14:06:10.566Z,7.50
2022-12-08T14:08:58.989Z,6.87
2022-12-08T14:11:33.740Z,9.37
2022-12-08T14:14:03.867Z,8.30
2022-12-08T14:16:34.945Z,7.03
2022-12-08T14:19:12.993Z,6.93
2022-12-08T14:21:41.337Z,6.87
2022-12-08T14:24:11.074Z,7.77
2022-12-08T14:26:39.441Z,6.77
2022-12-08T14:29:08.682Z,9.43
2022-12-08T14:31:37.280Z,9.33
2022-12-08T14:34:05.748Z,8.37
2022-12-08T14:36:36.419Z,8.73
2022-12-08T14:39:04.886Z,7.43
2022-12-08T14:41:33.678Z,8.27
2022-12-08T14:44:02.597Z,7.60
2022-12-08T14:46:31.062Z,7.77
2022-12-08T14:48:59.847Z,6.77
2022-12-08T14:51:30.894Z,8.30
2022-12-08T14:54:02.040Z,7.07
2022-12-08T14:56:34.718Z,7.70
2022-12-08T14:59:07.831Z,7.13
2022-12-08T15:01:36.533Z,8.60
2022-12-08T15:04:08.986Z,7.03
2022-12-08T15:06:37.796Z,8.77
2022-12-08T15:09:18.211Z,7.80
2022-12-08T15:11:46.781Z,8.87
2022-12-08T15:14:30.715Z,7.63
2022-12-08T15:16:59.059Z,7.60
2022-12-08T15:19:29.676Z,8.80
2022-12-08T15:21:59.371Z,7.40
2022-12-08T15:24:30.664Z,10.57
2022-12-08T15:26:58.972Z,9.23
2022-12-08T15:29:28.450Z,8.53
2022-12-08T15:31:57.856Z,11.47
2022-12-08T15:34:26.280Z,10.20
2022-12-08T15:36:55.417Z,8.83
2022-12-08T15:39:32.505Z,7.30
2022-12-08T15:42:00.942Z,9.07
2022-12-08T15:44:29.343Z,17.17
2022-12-08T15:46:57.748Z,10.53
2022-12-08T15:49:32.854Z,9.03
2022-12-08T15:52:11.241Z,6.90
2022-12-08T15:54:41.533Z,7.93
2022-12-08T15:57:22.054Z,6.90
2022-12-08T15:59:58.810Z,9.00
2022-12-08T16:02:34.327Z,8.50
2022-12-08T16:05:42.444Z,7.67
2022-12-08T16:08:17.125Z,10.73
2022-12-08T16:12:03.934Z,8.60
2022-12-08T16:14:23.526Z,10.47
2022-12-08T16:16:50.106Z,9.20
2022-12-08T16:19:18.537Z,9.77
2022-12-08T16:24:35.404Z,8.73
2022-12-08T16:29:53.620Z,9.17
2022-12-08T16:32:22.062Z,8.93
2022-12-08T16:34:50.507Z,9.00
2022-12-08T16:37:19.502Z,9.23
2022-12-08T16:39:50.194Z,7.93
2022-12-08T16:42:38.435Z,12.63
2022-12-08T16:45:09.500Z,8.23
2022-12-08T16:47:37.826Z,9.43
2022-12-08T16:50:07.837Z,7.93
2022-12-08T16:52:36.502Z,7.40
2022-12-08T16:55:07.119Z,6.33
2022-12-08T16:57:37.032Z,7.23
2022-12-08T17:00:06.628Z,7.00
2022-12-08T17:02:35.228Z,8.13
2022-12-08T17:05:03.975Z,7.20
2022-12-08T17:07:32.397Z,8.63
2022-12-08T17:10:01.184Z,8.43
2022-12-08T17:12:29.611Z,7.33
2022-12-08T17:14:59.395Z,6.67
2022-12-08T17:17:28.057Z,8.10
2022-12-08T17:19:56.537Z,9.63
2022-12-08T17:22:24.976Z,9.47
2022-12-08T17:24:53.314Z,8.27
2022-12-08T17:27:21.847Z,7.83
2022-12-08T17:29:50.475Z,7.90
2022-12-08T17:32:20.369Z,7.87
2022-12-08T17:34:48.852Z,7.80
2022-12-08T17:37:17.325Z,8.50
2022-12-08T17:39:45.820Z,6.97
2022-12-08T17:42:14.385Z,11.97
2022-12-08T17:44:42.764Z,12.50
2022-12-08T17:47:11.452Z,10.47
2022-12-08T17:49:41.194Z,10.47
2022-12-08T17:52:12.357Z,9.20
2022-12-08T17:54:40.690Z,10.43
2022-12-08T17:57:09.018Z,10.03
2022-12-08T17:59:37.658Z,8.37
2022-12-08T18:02:06.195Z,8.47
2022-12-08T18:04:34.503Z,8.33
2022-12-08T18:07:04.461Z,9.07
2022-12-08T18:09:33.721Z,13.50
2022-12-08T18:12:02.213Z,10.30
2022-12-08T18:14:30.577Z,11.37
2022-12-08T18:16:58.948Z,10.03
2022-12-08T18:19:27.980Z,11.00
2022-12-08T18:21:56.323Z,9.77
2022-12-08T18:24:28.952Z,11.40
2022-12-08T18:26:57.877Z,9.60
2022-12-08T18:29:26.473Z,8.63
2022-12-08T18:31:54.826Z,9.47
2022-12-08T18:34:23.344Z,9.70
2022-12-08T18:36:51.701Z,8.87
2022-12-08T18:39:26.032Z,8.37
2022-12-08T18:41:54.465Z,10.13
2022-12-08T18:44:22.808Z,7.73
2022-12-08T18:46:51.190Z,8.73
2022-12-08T18:49:20.118Z,9.20
2022-12-08T18:51:48.835Z,8.67
2022-12-08T18:54:17.283Z,9.63
2022-12-08T18:56:47.023Z,10.47
2022-12-08T18:59:15.334Z,8.70
2022-12-08T19:01:43.816Z,9.03
2022-12-08T19:04:27.807Z,8.53
2022-12-08T19:06:57.196Z,9.70
2022-12-08T19:09:29.805Z,10.43
2022-12-08T19:11:59.506Z,8.60
2022-12-08T19:14:28.784Z,9.30
2022-12-08T19:16:57.571Z,9.13
2022-12-08T19:19:26.232Z,12.23
2022-12-08T19:21:54.736Z,8.13
2022-12-08T19:24:23.126Z,9.13
2022-12-08T19:26:51.511Z,10.23
2022-12-08T19:29:21.260Z,9.10
2022-12-08T19:31:49.897Z,9.77
2022-12-08T19:34:18.196Z,11.73
2022-12-08T19:36:46.528Z,9.50
2022-12-08T19:39:34.023Z,9.13
2022-12-08T19:42:19.980Z,8.77
2022-12-08T19:44:55.471Z,11.37
2022-12-08T19:47:24.434Z,9.00
2022-12-08T19:49:53.961Z,12.77
2022-12-08T19:52:22.457Z,9.23
2022-12-08T19:54:50.823Z,10.77
2022-12-08T19:57:20.562Z,12.03
2022-12-08T19:59:56.031Z,11.47
2022-12-08T20:02:24.795Z,11.10
2022-12-08T20:04:53.305Z,12.77
2022-12-08T20:07:21.671Z,10.27
2022-12-08T20:09:49.975Z,10.27
2022-12-08T20:12:18.626Z,12.43
2022-12-08T20:14:47.200Z,10.53
2022-12-08T20:17:16.955Z,9.83
2022-12-08T20:19:45.366Z,10.03
2022-12-08T20:22:13.743Z,8.87
2022-12-08T20:24:42.179Z,9.43
2022-12-08T20:27:10.927Z,9.93
2022-12-08T20:29:39.280Z,9.10
2022-12-08T20:32:07.932Z,14.27
2022-12-08T20:34:37.852Z,11.00
2022-12-08T20:37:06.142Z,11.40
2022-12-08T20:39:35.697Z,10.97
2022-12-08T20:42:04.855Z,10.60
2022-12-08T20:44:33.399Z,16.57
2022-12-08T20:47:01.904Z,10.63
2022-12-08T20:49:34.508Z,10.80
2022-12-08T20:52:04.849Z,11.83
2022-12-08T20:54:33.510Z,11.40
2022-12-08T20:57:02.162Z,11.57
2022-12-08T20:59:30.750Z,12.50
2022-12-08T21:02:00.675Z,10.93
2022-12-08T21:04:29.476Z,9.50
2022-12-08T21:06:58.219Z,11.77
2022-12-08T21:09:28.165Z,11.63
2022-12-08T21:11:56.744Z,10.40
2022-12-08T21:14:25.221Z,13.30
2022-12-08T21:16:54.641Z,10.70
2022-12-08T21:19:23.096Z,12.23
2022-12-08T21:21:51.944Z,15.30
2022-12-08T21:24:20.781Z,10.60
2022-12-08T21:26:50.501Z,14.40
2022-12-08T21:29:18.879Z,15.17
2022-12-08T21:31:47.431Z,12.63
2022-12-08T21:34:15.973Z,12.00
2022-12-08T21:36:44.347Z,12.43
2022-12-08T21:39:13.152Z,13.70
2022-12-08T21:41:58.709Z,12.00
2022-12-08T21:44:29.096Z,14.47
2022-12-08T21:46:57.629Z,12.80
2022-12-08T21:49:26.020Z,14.43
2022-12-08T21:51:55.641Z,14.63
2022-12-08T21:54:24.160Z,14.00
2022-12-08T21:56:52.650Z,14.33
2022-12-08T21:59:21.273Z,15.50
2022-12-08T22:01:51.552Z,15.27
2022-12-08T22:04:21.435Z,13.43
2022-12-08T22:06:50.157Z,15.70
2022-12-08T22:09:19.049Z,17.00
2022-12-08T22:11:47.879Z,13.97
2022-12-08T22:14:16.550Z,12.57
2022-12-08T22:16:44.987Z,14.43
2022-12-08T22:19:15.270Z,13.53
2022-12-08T22:21:43.674Z,15.60
2022-12-08T22:24:12.193Z,14.33
2022-12-08T22:26:40.663Z,13.33
2022-12-08T22:29:09.594Z,17.90
2022-12-08T22:31:38.359Z,12.83
2022-12-08T22:34:07.006Z,18.77
2022-12-08T22:36:36.839Z,13.73
2022-12-08T22:39:05.422Z,14.00
2022-12-08T22:41:34.137Z,18.07
2022-12-08T22:44:02.816Z,14.43
2022-12-08T22:46:31.700Z,15.87
2022-12-08T22:49:00.179Z,13.43
2022-12-08T22:51:28.513Z,16.17
2022-12-08T22:53:58.404Z,18.00
2022-12-08T22:56:27.259Z,15.03
2022-12-08T22:58:55.663Z,14.07
2022-12-08T23:01:25.439Z,11.20
2022-12-08T23:03:54.199Z,13.30
2022-12-08T23:06:22.769Z,11.47
2022-12-08T23:08:51.497Z,12.57
2022-12-08T23:11:21.864Z,13.40
2022-12-08T23:13:50.335Z,13.67
2022-12-08T23:16:18.730Z,11.37
2022-12-08T23:18:47.351Z,13.00
2022-12-08T23:21:16.769Z,11.63
2022-12-08T23:23:45.666Z,11.53
2022-12-08T23:26:17.036Z,11.73
2022-12-08T23:28:46.939Z,12.50
2022-12-08T23:31:15.544Z,11.87
2022-12-08T23:33:44.308Z,10.57
2022-12-08T23:36:14.742Z,11.60
2022-12-08T23:38:43.797Z,13.37
2022-12-08T23:41:13.205Z,11.13
2022-12-08T23:43:46.738Z,12.67
2022-12-08T23:46:15.803Z,12.60
2022-12-08T23:48:44.273Z,10.37
2022-12-08T23:51:13.125Z,14.90
2022-12-08T23:53:41.578Z,11.77
2022-12-08T23:56:11.206Z,11.50
2022-12-08T23:58:39.885Z,8.33
